Time;durP1;ratioP1;P1;durP2;ratioP2;P2;SDS_P1;SDS_P2;PMS_P1;PMS_P2;Temp;Humidity;BMP_temperature;BMP_pressure;BME280_temperature;BME280_humidity;BME280_pressure;Samples;Min_cycle;Max_cycle;Signal;HPM_P1;HPM_P2
2024/01/02 00:02:16;;;;;;;11.15;1.77;;;7.40;99.90;;;;;;4995860;28;20740;-59
2024/01/02 00:04:44;;;;;;;5.72;1.88;;;7.50;99.90;;;;;;4995600;28;20216;-59
2024/01/02 00:07:12;;;;;;;5.80;1.77;;;7.50;99.90;;;;;;4995404;28;20322;-58
2024/01/02 00:09:40;;;;;;;9.63;2.03;;;7.40;99.90;;;;;;4995137;28;20631;-59
2024/01/02 00:12:08;;;;;;;8.30;1.55;;;7.50;99.90;;;;;;4995499;28;20270;-59
2024/01/02 00:14:36;;;;;;;9.48;2.03;;;7.40;99.90;;;;;;4995501;28;20262;-59
2024/01/02 00:17:04;;;;;;;11.15;1.45;;;7.40;99.90;;;;;;4995441;28;20235;-58
2024/01/02 00:19:34;;;;;;;4.03;1.33;;;7.40;99.90;;;;;;4995131;28;20266;-59
2024/01/02 00:22:02;;;;;;;6.43;1.23;;;7.40;99.90;;;;;;4995479;28;20262;-60
2024/01/02 00:24:29;;;;;;;10.10;1.63;;;7.40;99.90;;;;;;4994987;28;20212;-59
2024/01/02 00:26:57;;;;;;;4.85;1.30;;;7.40;99.90;;;;;;4995442;28;20294;-59
2024/01/02 00:29:25;;;;;;;8.90;1.65;;;7.40;99.90;;;;;;4994876;28;20752;-59
2024/01/02 00:31:53;;;;;;;10.73;1.50;;;7.40;99.90;;;;;;4979529;28;20212;-59
2024/01/02 00:34:21;;;;;;;5.63;1.23;;;7.40;99.90;;;;;;4995023;28;20212;-59
2024/01/02 00:36:50;;;;;;;6.88;1.33;;;7.40;99.90;;;;;;4994769;28;20317;-59
2024/01/02 00:39:18;;;;;;;6.65;1.42;;;7.40;99.90;;;;;;4994635;28;20654;-60
2024/01/02 00:41:46;;;;;;;6.30;1.42;;;7.40;99.90;;;;;;4995237;28;20282;-59
2024/01/02 00:44:14;;;;;;;6.75;1.08;;;7.40;99.90;;;;;;4994798;28;20295;-59
2024/01/02 00:46:42;;;;;;;6.32;1.27;;;7.50;99.90;;;;;;4993285;28;20228;-58
2024/01/02 00:49:10;;;;;;;8.55;1.15;;;7.50;99.90;;;;;;4994541;28;20618;-59
2024/01/02 00:51:37;;;;;;;4.38;1.10;;;7.50;99.90;;;;;;4994642;28;20204;-59
2024/01/02 00:54:07;;;;;;;3.25;1.40;;;7.50;99.90;;;;;;4994767;28;20318;-59
2024/01/02 00:56:34;;;;;;;9.13;1.63;;;7.50;99.90;;;;;;4994523;28;20579;-59
2024/01/02 00:59:02;;;;;;;4.63;1.20;;;7.50;99.90;;;;;;4994344;28;20200;-59
2024/01/02 01:01:30;;;;;;;8.73;1.45;;;7.50;99.90;;;;;;4994699;28;20586;-59
2024/01/02 01:03:58;;;;;;;5.30;1.40;;;7.50;99.90;;;;;;4994301;28;20294;-59
2024/01/02 01:06:26;;;;;;;1.77;1.20;;;7.50;99.90;;;;;;4994571;28;20239;-59
2024/01/02 01:08:54;;;;;;;3.28;1.02;;;7.50;99.90;;;;;;4994176;28;20200;-59
2024/01/02 01:11:23;;;;;;;4.68;1.50;;;7.50;99.90;;;;;;4994592;28;20204;-59
2024/01/02 01:13:51;;;;;;;9.30;1.48;;;7.50;99.90;;;;;;4978040;28;20214;-59
2024/01/02 01:16:19;;;;;;;6.93;1.23;;;7.50;99.90;;;;;;4994332;28;20232;-60
2024/01/02 01:18:47;;;;;;;4.07;1.20;;;7.40;99.90;;;;;;4993609;28;20228;-59
2024/01/02 01:21:15;;;;;;;7.63;1.20;;;7.40;99.90;;;;;;4994413;28;20263;-58
2024/01/02 01:23:43;;;;;;;6.63;1.45;;;7.40;99.90;;;;;;4994029;28;20204;-59
2024/01/02 01:26:10;;;;;;;6.63;1.90;;;7.30;99.90;;;;;;4994182;28;20234;-59
2024/01/02 01:28:40;;;;;;;6.03;1.25;;;7.40;99.90;;;;;;4993881;28;20196;-59
2024/01/02 01:31:08;;;;;;;4.07;1.08;;;7.40;99.90;;;;;;4994118;28;20227;-60
2024/01/02 01:33:36;;;;;;;8.68;1.67;;;7.40;99.90;;;;;;4994266;28;20204;-59
2024/01/02 01:36:04;;;;;;;5.15;1.10;;;7.30;99.90;;;;;;4993897;28;20297;-59
2024/01/02 01:38:32;;;;;;;3.35;1.17;;;7.30;99.90;;;;;;4993499;28;20674;-59
2024/01/02 01:41:00;;;;;;;7.57;1.35;;;7.30;99.90;;;;;;4993817;28;20224;-59
2024/01/02 01:43:28;;;;;;;4.88;1.52;;;7.40;99.90;;;;;;4993996;28;20208;-59
2024/01/02 01:45:57;;;;;;;7.05;1.55;;;7.30;99.90;;;;;;4993405;28;20223;-59
2024/01/02 01:48:25;;;;;;;2.60;1.60;;;7.30;99.90;;;;;;4993828;28;20228;-59
2024/01/02 01:50:53;;;;;;;6.63;1.40;;;7.40;99.90;;;;;;4993766;28;20295;-59
2024/01/02 01:53:21;;;;;;;5.28;1.30;;;7.30;99.90;;;;;;4993725;28;20294;-58
2024/01/02 01:55:49;;;;;;;4.63;1.67;;;7.30;99.90;;;;;;4993317;28;20234;-59
2024/01/02 01:58:17;;;;;;;8.73;1.92;;;7.20;99.90;;;;;;4992858;28;20318;-59
2024/01/02 02:00:45;;;;;;;9.75;1.60;;;7.20;99.90;;;;;;4993435;28;20247;-59
2024/01/02 02:03:14;;;;;;;6.20;1.65;;;7.20;99.90;;;;;;4993745;28;20211;-59
2024/01/02 02:05:42;;;;;;;5.75;1.55;;;7.20;99.90;;;;;;4993031;28;20258;-59
2024/01/02 02:08:10;;;;;;;6.80;1.60;;;7.20;99.90;;;;;;4987973;28;20688;-59
2024/01/02 02:10:38;;;;;;;6.82;1.73;;;7.20;99.90;;;;;;4990615;28;20244;-59
2024/01/02 02:13:06;;;;;;;8.68;1.45;;;7.10;99.90;;;;;;4993262;28;20204;-59
2024/01/02 02:15:38;;;;;;;5.30;1.50;;;7.20;99.90;;;;;;4993022;28;20258;-59
2024/01/02 02:18:06;;;;;;;6.15;1.30;;;7.20;99.90;;;;;;4993109;28;20255;-59
2024/01/02 02:20:36;;;;;;;4.80;1.33;;;7.20;99.90;;;;;;4992907;28;20215;-58
2024/01/02 02:23:05;;;;;;;6.50;1.20;;;7.10;99.90;;;;;;4993024;28;20204;-59
2024/01/02 02:25:34;;;;;;;9.60;1.40;;;7.10;99.90;;;;;;4992796;28;20204;-59
2024/01/02 02:28:02;;;;;;;4.30;1.63;;;7.10;99.90;;;;;;4993043;28;20196;-59
2024/01/02 02:30:30;;;;;;;3.78;1.25;;;7.10;99.90;;;;;;4992788;28;20208;-60
2024/01/02 02:32:58;;;;;;;4.85;1.23;;;7.10;99.90;;;;;;4992817;28;20200;-59
2024/01/02 02:35:26;;;;;;;4.95;1.10;;;7.10;99.90;;;;;;4992872;28;20295;-59
2024/01/02 02:37:54;;;;;;;2.90;0.98;;;7.10;99.90;;;;;;4992417;28;20262;-59
2024/01/02 02:40:24;;;;;;;4.97;1.60;;;7.10;99.90;;;;;;4992666;28;20263;-59
2024/01/02 02:42:52;;;;;;;5.00;1.35;;;7.10;99.90;;;;;;4992783;28;20239;-59
2024/01/02 02:45:20;;;;;;;4.05;0.95;;;7.10;99.90;;;;;;4992451;28;20208;-59
2024/01/02 02:47:47;;;;;;;4.47;1.02;;;7.10;99.90;;;;;;4992535;28;20941;-59
2024/01/02 02:50:15;;;;;;;4.57;1.10;;;7.00;99.90;;;;;;4992581;28;20294;-59
2024/01/02 02:52:43;;;;;;;1.25;0.70;;;7.00;99.90;;;;;;4992564;28;20212;-58
2024/01/02 02:55:14;;;;;;;4.50;0.80;;;7.00;99.90;;;;;;4992427;28;20307;-59
2024/01/02 02:57:43;;;;;;;4.22;1.50;;;7.00;99.90;;;;;;4992238;28;20226;-59
2024/01/02 03:00:13;;;;;;;5.53;1.25;;;7.00;99.90;;;;;;4992240;28;20285;-60
2024/01/02 03:02:40;;;;;;;3.63;0.70;;;6.90;99.90;;;;;;4992668;28;20295;-59
2024/01/02 03:05:09;;;;;;;4.05;0.93;;;6.90;99.90;;;;;;4992315;28;20639;-59
2024/01/02 03:07:37;;;;;;;2.45;1.00;;;6.90;99.90;;;;;;4992047;28;20607;-59
2024/01/02 03:10:06;;;;;;;3.30;0.90;;;6.90;99.90;;;;;;4991376;28;20199;-59
2024/01/02 03:12:34;;;;;;;1.85;0.80;;;6.90;99.90;;;;;;4992462;28;20288;-59
2024/01/02 03:15:03;;;;;;;4.07;0.88;;;6.90;99.90;;;;;;4992333;28;20551;-59
2024/01/02 03:17:31;;;;;;;2.97;0.90;;;6.90;99.90;;;;;;4992304;28;20259;-59
2024/01/02 03:19:59;;;;;;;1.80;0.80;;;6.90;99.90;;;;;;4991846;28;20228;-59
2024/01/02 03:22:27;;;;;;;3.78;0.93;;;6.80;99.90;;;;;;4992279;28;20287;-58
2024/01/02 03:24:56;;;;;;;2.80;0.82;;;6.90;99.90;;;;;;4991758;28;20294;-58
2024/01/02 03:27:23;;;;;;;2.70;0.57;;;6.80;99.90;;;;;;4992251;28;20227;-58
2024/01/02 03:29:51;;;;;;;7.00;0.80;;;6.90;99.90;;;;;;4991969;28;20266;-59
2024/01/02 03:32:20;;;;;;;4.03;0.70;;;6.80;99.90;;;;;;4992318;28;20211;-59
2024/01/02 03:34:50;;;;;;;1.38;0.70;;;6.80;99.90;;;;;;4991890;28;20215;-59
2024/01/02 03:37:18;;;;;;;4.68;0.90;;;6.80;99.90;;;;;;4991949;28;20231;-59
2024/01/02 03:39:46;;;;;;;3.15;0.57;;;6.80;99.90;;;;;;4991577;28;20314;-58
2024/01/02 03:42:14;;;;;;;5.43;0.80;;;6.80;99.90;;;;;;4992313;28;20204;-59
2024/01/02 03:44:41;;;;;;;1.45;0.80;;;6.80;99.90;;;;;;4991963;28;20307;-58
2024/01/02 03:47:09;;;;;;;1.48;0.82;;;6.80;99.90;;;;;;4991811;28;20764;-59
2024/01/02 03:49:39;;;;;;;2.15;0.70;;;6.80;99.90;;;;;;4991724;28;20208;-58
2024/01/02 03:52:06;;;;;;;3.33;0.60;;;6.80;99.90;;;;;;4976780;28;20204;-59
2024/01/02 03:54:34;;;;;;;2.90;0.52;;;6.80;99.90;;;;;;4991652;28;20239;-59
2024/01/02 03:57:02;;;;;;;4.75;0.70;;;6.80;99.90;;;;;;4983751;28;20266;-59
2024/01/02 03:59:30;;;;;;;2.47;0.57;;;6.80;99.90;;;;;;4991584;28;20318;-58
2024/01/02 04:01:58;;;;;;;0.52;0.50;;;6.80;99.90;;;;;;4991920;28;20216;-59
2024/01/02 04:04:26;;;;;;;3.30;0.50;;;6.80;99.90;;;;;;4991649;28;20704;-59
2024/01/02 04:06:56;;;;;;;1.20;0.52;;;6.80;99.90;;;;;;4991536;28;20246;-58
2024/01/02 04:09:24;;;;;;;4.65;0.65;;;6.80;99.90;;;;;;4991854;28;20258;-55
2024/01/02 04:11:52;;;;;;;2.38;0.55;;;6.80;99.90;;;;;;4991911;28;20246;-57
2024/01/02 04:14:20;;;;;;;2.45;0.40;;;6.80;99.90;;;;;;4991654;28;20208;-59
2024/01/02 04:16:47;;;;;;;3.40;0.50;;;6.80;99.90;;;;;;4991552;28;20232;-54
2024/01/02 04:19:16;;;;;;;1.98;0.60;;;6.80;99.90;;;;;;4991470;28;20263;-57
2024/01/02 04:21:44;;;;;;;2.30;0.52;;;6.80;99.90;;;;;;4995377;28;20287;-56
2024/01/02 04:24:15;;;;;;;0.68;0.47;;;6.80;99.90;;;;;;4995525;28;20231;-55
2024/01/02 04:26:43;;;;;;;1.38;0.43;;;6.80;99.90;;;;;;4995112;28;20319;-55
2024/01/02 04:29:10;;;;;;;0.38;0.38;;;6.80;99.90;;;;;;4995353;28;20571;-54
2024/01/02 04:31:38;;;;;;;1.23;0.50;;;6.80;99.90;;;;;;4995024;28;20255;-56
2024/01/02 04:34:06;;;;;;;1.80;0.50;;;6.80;99.90;;;;;;4995137;28;20295;-56
2024/01/02 04:36:34;;;;;;;0.95;0.50;;;6.80;99.90;;;;;;4994992;28;20639;-57
2024/01/02 04:39:03;;;;;;;2.40;0.43;;;6.80;99.90;;;;;;4994713;28;20721;-58
2024/01/02 04:41:32;;;;;;;1.52;0.40;;;6.80;99.90;;;;;;4994993;28;20232;-57
2024/01/02 04:44:00;;;;;;;1.65;0.40;;;6.90;99.90;;;;;;4994899;28;20756;-55
2024/01/02 04:46:28;;;;;;;1.65;0.77;;;6.90;99.90;;;;;;4994657;28;20306;-55
2024/01/02 04:48:55;;;;;;;1.00;0.50;;;6.90;99.90;;;;;;4994741;28;20310;-54
2024/01/02 04:51:23;;;;;;;2.55;0.57;;;6.90;99.90;;;;;;4994855;28;20204;-54
2024/01/02 04:53:51;;;;;;;2.85;0.70;;;6.80;99.90;;;;;;4994823;28;20208;-54
2024/01/02 04:56:19;;;;;;;1.90;0.50;;;6.90;99.90;;;;;;4994585;28;20635;-57
2024/01/02 04:58:48;;;;;;;1.75;0.57;;;6.90;99.90;;;;;;4994365;28;20204;-56
2024/01/02 05:01:16;;;;;;;1.13;0.40;;;6.90;99.90;;;;;;4994741;28;20242;-55
2024/01/02 05:03:44;;;;;;;3.97;0.70;;;6.90;99.90;;;;;;4994737;28;20211;-54
2024/01/02 05:06:12;;;;;;;0.90;0.52;;;6.90;99.90;;;;;;4994163;28;20322;-54
2024/01/02 05:08:40;;;;;;;0.43;0.40;;;6.90;99.90;;;;;;4994500;28;20204;-54
2024/01/02 05:11:08;;;;;;;1.10;0.50;;;6.90;99.90;;;;;;4994371;28;20732;-56
2024/01/02 05:13:37;;;;;;;1.77;0.40;;;6.90;99.90;;;;;;4994728;28;20235;-54
2024/01/02 05:16:08;;;;;;;0.70;0.43;;;6.90;99.90;;;;;;4994250;28;20264;-58
2024/01/02 05:18:36;;;;;;;3.22;0.50;;;6.90;99.90;;;;;;4994316;28;20263;-55
2024/01/02 05:21:04;;;;;;;3.15;0.93;;;6.90;99.90;;;;;;4986066;28;20246;-55
2024/01/02 05:23:32;;;;;;;1.25;0.40;;;7.00;99.90;;;;;;4994371;28;20319;-54
2024/01/02 05:26:00;;;;;;;0.75;0.32;;;7.00;99.90;;;;;;4993866;28;20232;-54
2024/01/02 05:28:28;;;;;;;0.70;0.40;;;7.00;99.90;;;;;;4988262;28;20212;-59
2024/01/02 05:30:56;;;;;;;0.38;0.38;;;7.00;99.90;;;;;;4973621;28;20201;-56
2024/01/02 05:33:25;;;;;;;2.90;0.45;;;7.00;99.90;;;;;;4972399;28;20604;-58
2024/01/02 05:35:53;;;;;;;0.45;0.40;;;7.00;99.90;;;;;;4974271;28;20239;-56
2024/01/02 05:38:21;;;;;;;0.52;0.43;;;6.90;99.90;;;;;;4973304;28;20212;-56
2024/01/02 05:40:49;;;;;;;0.60;0.30;;;7.10;99.90;;;;;;4973723;28;20781;-55
2024/01/02 05:43:17;;;;;;;2.17;0.65;;;7.00;99.90;;;;;;4974385;28;20713;-55
2024/01/02 05:45:45;;;;;;;1.50;0.43;;;7.00;99.90;;;;;;4974068;28;20228;-55
2024/01/02 05:48:12;;;;;;;2.47;0.82;;;7.00;99.90;;;;;;4985961;28;20728;-54
2024/01/02 05:50:42;;;;;;;0.70;0.50;;;7.00;99.90;;;;;;4993467;28;20279;-56
2024/01/02 05:53:10;;;;;;;0.40;0.40;;;7.00;99.90;;;;;;4977674;28;20210;-57
2024/01/02 05:55:38;;;;;;;2.53;0.45;;;7.00;99.90;;;;;;4993722;28;20230;-55
2024/01/02 05:58:06;;;;;;;0.55;0.30;;;7.00;99.90;;;;;;4983576;28;20304;-56
2024/01/02 06:00:35;;;;;;;0.40;0.40;;;7.00;99.90;;;;;;4973901;28;20224;-56
2024/01/02 06:03:03;;;;;;;0.52;0.30;;;7.00;99.90;;;;;;4976297;28;20217;-56
2024/01/02 06:05:31;;;;;;;2.47;0.45;;;7.10;99.90;;;;;;4993010;28;20248;-56
2024/01/02 06:08:00;;;;;;;2.50;0.40;;;7.00;99.90;;;;;;4993442;28;20283;-55
2024/01/02 06:10:28;;;;;;;0.88;0.50;;;7.10;99.90;;;;;;4984686;28;20216;-58
2024/01/02 06:12:56;;;;;;;1.23;0.63;;;7.10;99.90;;;;;;4973642;28;20275;-58
2024/01/02 06:15:24;;;;;;;1.13;0.47;;;7.10;99.90;;;;;;4978354;28;20302;-55
2024/01/02 06:17:53;;;;;;;1.95;0.30;;;7.10;99.90;;;;;;4992626;28;20275;-54
2024/01/02 06:20:21;;;;;;;2.13;0.40;;;7.10;99.90;;;;;;4992554;28;20316;-57
2024/01/02 06:22:49;;;;;;;0.93;0.30;;;7.10;99.90;;;;;;4993090;28;20211;-56
2024/01/02 06:25:18;;;;;;;0.47;0.47;;;7.10;99.90;;;;;;4992612;28;20251;-59
2024/01/02 06:27:46;;;;;;;2.10;0.40;;;7.10;99.90;;;;;;4992654;28;20654;-55
2024/01/02 06:30:14;;;;;;;0.70;0.43;;;7.20;99.90;;;;;;4992484;28;20254;-56
2024/01/02 06:32:42;;;;;;;2.40;0.40;;;7.20;99.90;;;;;;4992710;28;20274;-55
2024/01/02 06:35:10;;;;;;;0.82;0.30;;;7.20;99.90;;;;;;4992503;28;20660;-55
2024/01/02 06:37:38;;;;;;;0.60;0.35;;;7.20;99.90;;;;;;4992698;28;20286;-54
2024/01/02 06:40:08;;;;;;;3.30;0.45;;;7.20;99.90;;;;;;4992219;28;20644;-54
2024/01/02 06:42:37;;;;;;;0.57;0.30;;;7.20;99.90;;;;;;4992893;28;20254;-54
2024/01/02 06:45:07;;;;;;;0.30;0.30;;;7.20;99.90;;;;;;4992372;28;20607;-57
2024/01/02 06:47:35;;;;;;;2.63;0.60;;;7.30;99.90;;;;;;4992775;28;20263;-54
2024/01/02 06:50:03;;;;;;;0.45;0.28;;;7.30;99.90;;;;;;4992543;28;20208;-55
2024/01/02 06:52:31;;;;;;;1.30;0.30;;;7.30;99.90;;;;;;4992830;28;20212;-55
2024/01/02 06:54:59;;;;;;;3.70;0.50;;;7.40;99.90;;;;;;4992321;28;20817;-54
2024/01/02 06:57:27;;;;;;;1.42;0.40;;;7.40;99.90;;;;;;4992317;28;20223;-54
2024/01/02 06:59:56;;;;;;;0.38;0.30;;;7.40;99.90;;;;;;4991664;28;20664;-56
2024/01/02 07:02:24;;;;;;;0.20;0.20;;;7.40;99.90;;;;;;4973368;28;20292;-57
2024/01/02 07:04:52;;;;;;;0.35;0.35;;;7.40;99.90;;;;;;4989352;28;20633;-55
2024/01/02 07:07:20;;;;;;;0.60;0.40;;;7.50;99.90;;;;;;4980203;28;20271;-56
2024/01/02 07:09:47;;;;;;;0.20;0.20;;;7.50;99.90;;;;;;4980876;28;20300;-56
2024/01/02 07:12:15;;;;;;;2.30;0.35;;;7.50;99.90;;;;;;4984507;28;20311;-57
2024/01/02 07:14:43;;;;;;;0.60;0.40;;;7.60;99.90;;;;;;4977392;28;20257;-57
2024/01/02 07:17:15;;;;;;;1.45;0.50;;;7.60;99.90;;;;;;4980993;28;20331;-56
2024/01/02 07:19:43;;;;;;;0.38;0.30;;;7.60;99.90;;;;;;4973052;28;20559;-56
2024/01/02 07:22:11;;;;;;;0.30;0.30;;;7.60;99.90;;;;;;4980908;28;20264;-56
2024/01/02 07:24:39;;;;;;;1.40;0.20;;;7.60;99.90;;;;;;4987238;28;20232;-56
2024/01/02 07:27:07;;;;;;;1.50;0.25;;;7.60;99.90;;;;;;4981916;28;20262;-56
2024/01/02 07:29:35;;;;;;;1.05;0.30;;;7.60;99.90;;;;;;4978296;28;20208;-57
2024/01/02 07:32:03;;;;;;;0.35;0.20;;;7.70;99.90;;;;;;4984175;28;20204;-56
2024/01/02 07:34:32;;;;;;;0.95;0.50;;;7.70;99.90;;;;;;4982022;28;20661;-56
2024/01/02 07:37:00;;;;;;;0.22;0.20;;;7.70;99.90;;;;;;4974500;28;20268;-57
2024/01/02 07:39:28;;;;;;;0.00;0.00;;;7.80;99.90;;;;;;4972773;28;20212;-57
2024/01/02 07:41:57;;;;;;;0.35;0.28;;;8.10;99.90;;;;;;4980965;28;20938;-56
2024/01/02 07:44:25;;;;;;;0.13;0.13;;;8.20;99.90;;;;;;4979600;28;20758;-56
2024/01/02 07:46:53;;;;;;;0.10;0.10;;;8.30;99.90;;;;;;4971926;28;20228;-57
2024/01/02 07:49:20;;;;;;;0.80;0.20;;;8.30;99.90;;;;;;4972942;28;20193;-57
2024/01/02 07:51:51;;;;;;;0.30;0.05;;;8.30;99.90;;;;;;4972508;28;20228;-56
2024/01/02 07:54:19;;;;;;;0.40;0.05;;;8.40;99.90;;;;;;4980959;28;20267;-57
2024/01/02 07:56:47;;;;;;;0.22;0.10;;;8.40;99.90;;;;;;4983618;28;20298;-55
2024/01/02 07:59:19;;;;;;;0.50;0.10;;;8.40;99.90;;;;;;4984614;28;20221;-55
2024/01/02 08:01:48;;;;;;;0.05;0.05;;;8.40;99.90;;;;;;4984589;28;20267;-55
2024/01/02 08:04:16;;;;;;;0.30;0.00;;;8.50;99.90;;;;;;4976477;28;20643;-56
2024/01/02 08:06:44;;;;;;;1.25;0.08;;;8.50;99.90;;;;;;4991041;28;20301;-56
2024/01/02 08:09:14;;;;;;;1.38;0.10;;;8.60;99.90;;;;;;4979814;28;20236;-55
2024/01/02 08:11:42;;;;;;;0.20;0.20;;;8.60;99.90;;;;;;4988877;28;20200;-56
2024/01/02 08:14:10;;;;;;;0.10;0.10;;;8.60;99.90;;;;;;4978669;28;20208;-56
2024/01/02 08:16:38;;;;;;;0.17;0.10;;;8.70;99.90;;;;;;4981526;28;20229;-56
2024/01/02 08:19:07;;;;;;;0.10;0.10;;;8.70;99.90;;;;;;4975326;28;20279;-57
2024/01/02 08:21:35;;;;;;;0.15;0.10;;;8.80;99.90;;;;;;4989436;28;20232;-56
2024/01/02 08:24:03;;;;;;;0.40;0.03;;;8.90;99.90;;;;;;4979116;28;20762;-56
2024/01/02 08:26:33;;;;;;;0.10;0.10;;;8.90;99.90;;;;;;4982089;28;20244;-57
2024/01/02 08:29:00;;;;;;;0.15;0.08;;;8.90;99.90;;;;;;4984237;28;20215;-57
2024/01/02 08:31:28;;;;;;;4.28;0.17;;;8.90;99.90;;;;;;4982364;28;20204;-56
2024/01/02 08:33:56;;;;;;;0.52;0.10;;;8.90;99.90;;;;;;4983443;28;20670;-56
2024/01/02 08:36:24;;;;;;;0.00;0.00;;;9.00;99.90;;;;;;4990361;28;20232;-56
2024/01/02 08:38:52;;;;;;;0.00;0.00;;;9.00;99.90;;;;;;4975383;28;20619;-57
2024/01/02 08:41:20;;;;;;;0.10;0.10;;;9.00;99.90;;;;;;4986712;28;20283;-58
2024/01/02 08:43:50;;;;;;;0.75;0.10;;;9.00;99.90;;;;;;4994660;28;20204;-57
2024/01/02 08:46:17;;;;;;;0.10;0.10;;;9.00;99.90;;;;;;4994733;28;20223;-57
2024/01/02 08:48:45;;;;;;;0.10;0.10;;;9.00;99.90;;;;;;4994258;28;20264;-58
2024/01/02 08:51:13;;;;;;;0.17;0.10;;;9.00;99.90;;;;;;4992000;28;20749;-57
2024/01/02 08:53:41;;;;;;;0.13;0.13;;;9.10;99.90;;;;;;4989374;28;20732;-57
2024/01/02 08:56:09;;;;;;;0.10;0.10;;;9.10;99.90;;;;;;4994292;28;20238;-58
2024/01/02 08:58:37;;;;;;;0.05;0.05;;;9.10;99.90;;;;;;4994276;28;20232;-61
2024/01/02 09:01:11;;;;;;;0.22;0.10;;;9.10;99.90;;;;;;4976313;28;20679;-58
2024/01/02 09:03:39;;;;;;;1.27;0.10;;;9.10;99.90;;;;;;4989266;28;20208;-58
2024/01/02 09:06:07;;;;;;;0.00;0.00;;;9.10;99.90;;;;;;4977125;28;20237;-58
2024/01/02 09:08:35;;;;;;;0.10;0.10;;;9.10;99.90;;;;;;4984147;28;20703;-59
2024/01/02 09:11:04;;;;;;;0.10;0.10;;;9.20;99.90;;;;;;4993245;28;20208;-59
2024/01/02 09:13:32;;;;;;;0.80;0.15;;;9.30;99.90;;;;;;4980416;28;20205;-58
2024/01/02 09:15:59;;;;;;;0.90;0.10;;;9.30;99.90;;;;;;4989173;28;20236;-58
2024/01/02 09:18:29;;;;;;;0.47;0.10;;;9.30;99.90;;;;;;4989908;28;20739;-58
2024/01/02 09:20:57;;;;;;;0.10;0.10;;;9.30;99.90;;;;;;4984746;28;20212;-57
2024/01/02 09:23:25;;;;;;;0.10;0.10;;;9.40;99.90;;;;;;4985254;28;20224;-59
2024/01/02 09:25:53;;;;;;;0.10;0.10;;;9.30;99.90;;;;;;4992746;28;20785;-58
2024/01/02 09:28:21;;;;;;;0.20;0.10;;;9.40;99.90;;;;;;4981399;28;20255;-59
2024/01/02 09:30:51;;;;;;;0.55;0.10;;;9.40;99.90;;;;;;4973195;28;20674;-58
2024/01/02 09:33:20;;;;;;;0.10;0.10;;;9.40;99.90;;;;;;4992590;28;20266;-59
2024/01/02 09:35:50;;;;;;;0.22;0.20;;;9.40;99.90;;;;;;4992422;28;20612;-59
2024/01/02 09:38:18;;;;;;;0.13;0.13;;;9.40;99.90;;;;;;4979097;28;20212;-58
2024/01/02 09:40:59;;;;;;;0.45;0.10;;;9.40;99.90;;;;;;4971941;28;20221;-58
2024/01/02 09:43:31;;;;;;;0.10;0.10;;;9.40;99.90;;;;;;4973218;28;20710;-58
2024/01/02 09:46:03;;;;;;;0.10;0.10;;;9.40;99.90;;;;;;4972946;28;20258;-58
2024/01/02 09:48:42;;;;;;;1.00;0.10;;;9.40;99.90;;;;;;4975795;28;20196;-58
2024/01/02 09:51:15;;;;;;;0.43;0.10;;;9.40;99.90;;;;;;4972912;28;20916;-58
2024/01/02 09:54:11;;;;;;;0.80;0.10;;;9.40;99.90;;;;;;4973213;28;20197;-58
2024/01/02 09:56:44;;;;;;;0.20;0.20;;;9.30;99.90;;;;;;4972801;28;20235;-57
2024/01/02 09:59:32;;;;;;;0.10;0.10;;;9.40;99.90;;;;;;4975258;28;20212;-59
2024/01/02 10:02:12;;;;;;;0.13;0.10;;;9.40;99.90;;;;;;4992122;28;20259;-59
2024/01/02 10:04:50;;;;;;;0.20;0.20;;;9.40;99.90;;;;;;4980250;28;20667;-59
2024/01/02 10:07:54;;;;;;;0.10;0.10;;;9.40;99.90;;;;;;4948142;23;1048208;-61
2024/01/02 10:10:28;;;;;;;0.98;0.13;;;9.40;99.90;;;;;;4953624;29;20283;-59
2024/01/02 10:13:09;;;;;;;1.55;0.10;;;9.40;99.90;;;;;;4938850;28;20206;-60
2024/01/02 10:15:38;;;;;;;0.20;0.17;;;9.40;99.90;;;;;;4934908;29;20256;-61
2024/01/02 10:18:10;;;;;;;0.10;0.10;;;9.40;99.90;;;;;;4935135;29;20328;-64
2024/01/02 10:20:47;;;;;;;0.15;0.10;;;9.50;99.90;;;;;;4935689;29;20632;-60
2024/01/02 10:23:26;;;;;;;0.32;0.22;;;9.50;99.90;;;;;;4934907;29;20226;-60
2024/01/02 10:25:55;;;;;;;0.70;0.20;;;9.50;99.90;;;;;;4934093;29;20355;-60
2024/01/02 10:28:25;;;;;;;0.10;0.10;;;9.50;99.90;;;;;;4937261;29;20264;-61
2024/01/02 10:30:58;;;;;;;0.22;0.10;;;9.50;99.90;;;;;;4954075;29;20257;-59
2024/01/02 10:33:31;;;;;;;0.20;0.10;;;9.50;99.90;;;;;;4946375;29;20252;-62
2024/01/02 10:36:02;;;;;;;0.10;0.10;;;9.60;99.90;;;;;;4953763;29;20220;-62
2024/01/02 10:38:35;;;;;;;0.10;0.10;;;9.60;99.90;;;;;;4953013;29;20612;-62
2024/01/02 10:41:06;;;;;;;0.32;0.10;;;9.60;99.90;;;;;;4953857;29;20218;-62
2024/01/02 10:43:37;;;;;;;0.85;0.35;;;9.70;99.90;;;;;;4954122;29;20316;-62
2024/01/02 10:46:08;;;;;;;0.52;0.20;;;9.70;99.90;;;;;;4953523;29;20248;-63
2024/01/02 10:48:44;;;;;;;0.63;0.10;;;9.70;99.90;;;;;;4952895;29;20256;-63
2024/01/02 10:51:17;;;;;;;0.20;0.20;;;9.60;99.90;;;;;;4953683;28;20208;-63
2024/01/02 10:53:50;;;;;;;0.10;0.10;;;9.70;99.90;;;;;;4953799;29;20197;-63
2024/01/02 10:56:23;;;;;;;0.20;0.10;;;9.70;99.90;;;;;;4953419;29;20757;-63
2024/01/02 10:58:58;;;;;;;2.28;0.20;;;9.70;99.90;;;;;;4952986;28;20244;-63
2024/01/02 11:01:26;;;;;;;0.30;0.30;;;9.70;99.90;;;;;;4953241;28;20219;-63
2024/01/02 11:03:58;;;;;;;0.20;0.20;;;9.70;99.90;;;;;;4952736;29;20229;-63
2024/01/02 11:06:34;;;;;;;0.10;0.10;;;9.80;99.90;;;;;;4952007;29;20287;-63
2024/01/02 11:09:08;;;;;;;0.10;0.10;;;9.80;99.90;;;;;;4953292;29;20693;-63
2024/01/02 11:11:39;;;;;;;0.20;0.20;;;9.80;99.90;;;;;;4953328;29;20229;-62
2024/01/02 11:14:07;;;;;;;0.15;0.15;;;9.80;99.90;;;;;;4953803;29;20205;-63
2024/01/02 11:16:36;;;;;;;0.10;0.10;;;9.90;99.90;;;;;;4953454;29;20299;-63
2024/01/02 11:19:04;;;;;;;0.10;0.10;;;9.80;99.90;;;;;;4953433;29;20213;-63
2024/01/02 11:21:38;;;;;;;0.00;0.00;;;9.80;99.90;;;;;;4953529;29;20208;-63
2024/01/02 11:24:09;;;;;;;0.10;0.10;;;9.80;99.90;;;;;;4951772;28;20605;-63
2024/01/02 11:26:40;;;;;;;0.10;0.10;;;9.80;99.90;;;;;;4952819;29;20264;-63
2024/01/02 11:29:11;;;;;;;0.10;0.10;;;9.80;99.90;;;;;;4952477;29;20205;-63
2024/01/02 11:31:39;;;;;;;0.10;0.10;;;9.90;99.90;;;;;;4948472;29;20258;-63
2024/01/02 11:34:16;;;;;;;0.00;0.00;;;9.90;99.90;;;;;;4934421;29;20312;-63
2024/01/02 11:36:53;;;;;;;0.10;0.10;;;9.90;99.90;;;;;;4933649;29;20602;-63
2024/01/02 11:39:26;;;;;;;0.68;0.10;;;9.90;99.90;;;;;;4934246;29;20277;-63
2024/01/02 11:41:59;;;;;;;0.10;0.10;;;9.90;99.90;;;;;;4934177;29;20272;-63
2024/01/02 11:44:37;;;;;;;0.73;0.15;;;9.90;99.90;;;;;;4934056;29;20257;-63
2024/01/02 11:47:05;;;;;;;0.13;0.13;;;9.90;99.90;;;;;;4933652;29;20229;-63
2024/01/02 11:49:34;;;;;;;0.10;0.10;;;9.90;99.90;;;;;;4934275;29;20206;-63
2024/01/02 11:52:11;;;;;;;0.00;0.00;;;9.90;99.90;;;;;;4934118;29;20214;-63
2024/01/02 11:54:44;;;;;;;0.10;0.10;;;9.90;99.90;;;;;;4934264;29;20205;-63
2024/01/02 11:57:16;;;;;;;0.10;0.10;;;9.80;99.90;;;;;;4933724;29;20244;-63
2024/01/02 11:59:46;;;;;;;0.20;0.10;;;9.80;99.90;;;;;;4933974;29;20289;-63
2024/01/02 12:02:19;;;;;;;0.35;0.13;;;9.80;99.90;;;;;;4934052;29;20266;-63
2024/01/02 12:04:59;;;;;;;0.10;0.10;;;9.80;99.90;;;;;;4943044;29;20232;-63
2024/01/02 12:07:27;;;;;;;0.10;0.10;;;9.80;99.90;;;;;;4950256;29;20241;-63
2024/01/02 12:09:57;;;;;;;0.13;0.08;;;9.80;99.90;;;;;;4952455;29;20663;-63
2024/01/02 12:12:36;;;;;;;0.05;0.05;;;9.70;99.90;;;;;;4934405;29;20242;-63
2024/01/02 12:15:06;;;;;;;0.05;0.05;;;9.70;99.90;;;;;;4933911;29;20237;-63
2024/01/02 12:17:37;;;;;;;0.05;0.05;;;9.70;99.90;;;;;;4945474;29;20226;-62
2024/01/02 12:20:08;;;;;;;1.00;0.10;;;9.60;99.90;;;;;;4953159;29;20216;-63
2024/01/02 12:22:36;;;;;;;0.10;0.10;;;9.60;99.90;;;;;;4945849;29;20660;-63
2024/01/02 12:25:07;;;;;;;2.13;0.20;;;9.60;99.90;;;;;;4953074;29;20340;-63
2024/01/02 12:27:39;;;;;;;1.95;0.20;;;9.60;99.90;;;;;;4945817;29;20229;-63
2024/01/02 12:30:08;;;;;;;0.20;0.20;;;9.60;99.90;;;;;;4952864;29;20276;-63
2024/01/02 12:32:48;;;;;;;0.47;0.20;;;9.60;99.90;;;;;;4953110;28;20256;-63
2024/01/02 12:35:24;;;;;;;0.20;0.20;;;9.60;99.90;;;;;;4952658;29;20624;-63
2024/01/02 12:37:56;;;;;;;0.10;0.10;;;9.50;99.90;;;;;;4952806;29;20252;-63
2024/01/02 12:40:25;;;;;;;0.05;0.05;;;9.50;99.90;;;;;;4952654;28;20253;-63
2024/01/02 12:42:53;;;;;;;3.03;0.20;;;9.50;99.90;;;;;;4956233;29;20758;-63
2024/01/02 12:45:21;;;;;;;0.10;0.10;;;9.50;99.90;;;;;;4955866;29;20214;-63
2024/01/02 12:47:50;;;;;;;0.20;0.20;;;9.40;99.90;;;;;;4956237;29;20240;-63
2024/01/02 12:50:18;;;;;;;1.08;0.28;;;9.40;99.90;;;;;;4955997;29;20593;-63
2024/01/02 12:52:49;;;;;;;0.38;0.30;;;9.40;99.90;;;;;;4956069;29;20783;-63
2024/01/02 12:55:17;;;;;;;0.25;0.20;;;9.30;99.90;;;;;;4955849;29;20216;-63
2024/01/02 12:57:49;;;;;;;0.55;0.15;;;9.30;99.90;;;;;;4955954;28;20257;-63
2024/01/02 13:00:19;;;;;;;0.95;0.50;;;9.30;99.90;;;;;;4955618;28;20730;-63
2024/01/02 13:02:47;;;;;;;0.20;0.20;;;9.30;99.90;;;;;;4956068;29;20304;-63
2024/01/02 13:05:15;;;;;;;0.20;0.20;;;9.30;99.90;;;;;;4955469;29;20234;-63
2024/01/02 13:07:43;;;;;;;1.02;0.38;;;9.30;99.90;;;;;;4955485;29;20245;-63
2024/01/02 13:10:11;;;;;;;0.20;0.20;;;9.30;99.90;;;;;;4955257;28;20751;-62